Time;durP1;ratioP1;P1;durP2;ratioP2;P2;SDS_P1;SDS_P2;PMS_P1;PMS_P2;Temp;Humidity;BMP_temperature;BMP_pressure;BME280_temperature;BME280_humidity;BME280_pressure;Samples;Min_cycle;Max_cycle;Signal;HPM_P1;HPM_P2
2023/11/20 00:00:12;;;;;;;4.37;1.40;;;;;;;10.60;74.54;96084.66;5028431;28;20178;-69
2023/11/20 00:02:42;;;;;;;6.03;1.77;;;;;;;10.65;74.11;96081.81;5027979;28;20202;-69
2023/11/20 00:05:08;;;;;;;2.33;1.20;;;;;;;10.67;72.91;96081.75;5026806;28;20413;-68
2023/11/20 00:07:34;;;;;;;7.97;1.80;;;;;;;10.69;73.43;96080.75;5026983;28;20461;-69
2023/11/20 00:10:00;;;;;;;3.07;1.53;;;;;;;10.66;72.96;96074.81;5026720;28;20429;-66
2023/11/20 00:12:26;;;;;;;2.27;1.40;;;;;;;10.71;73.40;96075.44;5027414;28;20714;-70
2023/11/20 00:14:51;;;;;;;3.27;1.30;;;;;;;10.71;73.15;96060.53;5026803;28;20191;-71
2023/11/20 00:17:17;;;;;;;3.30;1.23;;;;;;;10.73;72.57;96061.31;5027227;28;20462;-70
2023/11/20 00:19:43;;;;;;;3.97;1.87;;;;;;;10.78;72.88;96061.94;5027362;28;20180;-71
2023/11/20 00:22:09;;;;;;;4.10;1.70;;;;;;;10.78;72.08;96059.31;5042112;28;20210;-68
2023/11/20 00:24:35;;;;;;;3.63;1.53;;;;;;;10.78;72.41;96067.19;5027096;28;20413;-71
2023/11/20 00:27:00;;;;;;;3.60;1.40;;;;;;;10.76;73.13;96061.16;5027288;28;20920;-69
2023/11/20 00:29:26;;;;;;;7.40;1.60;;;;;;;10.75;72.92;96069.97;5028327;28;20359;-70
2023/11/20 00:31:51;;;;;;;3.00;1.40;;;;;;;10.85;72.59;96064.25;5030452;28;20215;-70
2023/11/20 00:34:17;;;;;;;7.57;1.90;;;;;;;10.84;72.35;96067.78;5044183;28;20195;-70
2023/11/20 00:36:43;;;;;;;7.50;1.93;;;;;;;10.88;72.18;96069.34;5046052;28;20155;-68
2023/11/20 00:39:09;;;;;;;4.53;3.00;;;;;;;10.84;72.20;96080.91;5046077;28;20191;-69
2023/11/20 00:41:35;;;;;;;1.70;1.30;;;;;;;10.88;71.79;96066.72;5045658;28;20273;-69
2023/11/20 00:44:01;;;;;;;3.20;1.33;;;;;;;10.96;71.38;96080.28;5046107;28;20438;-69
2023/11/20 00:46:27;;;;;;;3.33;2.60;;;;;;;10.99;71.53;96072.28;5045862;28;20461;-69
2023/11/20 00:48:52;;;;;;;5.23;1.57;;;;;;;10.95;71.22;96078.59;5045701;28;21215;-69
2023/11/20 00:51:18;;;;;;;5.57;1.30;;;;;;;10.86;71.80;96079.06;5046157;28;20278;-68
2023/11/20 00:53:43;;;;;;;2.50;2.07;;;;;;;10.79;72.50;96089.91;5045926;28;20170;-70
2023/11/20 00:56:08;;;;;;;1.73;1.00;;;;;;;10.83;71.84;96079.22;5046528;28;20173;-70
2023/11/20 00:58:34;;;;;;;3.10;1.43;;;;;;;10.95;71.77;96082.06;5046054;28;20166;-72
2023/11/20 01:01:01;;;;;;;3.80;1.37;;;;;;;10.90;71.56;96084.09;5045958;28;20258;-70
2023/11/20 01:03:27;;;;;;;4.00;1.57;;;;;;;10.89;72.22;96085.03;5046584;28;20413;-70
2023/11/20 01:05:52;;;;;;;2.50;1.30;;;;;;;10.87;72.11;96081.63;5046020;28;20518;-70
2023/11/20 01:08:18;;;;;;;5.43;1.30;;;;;;;10.79;72.71;96097.75;5046326;28;20357;-68
2023/11/20 01:10:43;;;;;;;3.50;1.37;;;;;;;10.84;72.56;96094.88;5045869;28;20534;-70
2023/11/20 01:13:08;;;;;;;3.93;1.10;;;;;;;10.86;72.30;96089.56;5045835;28;20325;-70
2023/11/20 01:15:34;;;;;;;2.30;1.40;;;;;;;10.81;72.56;96101.13;5046227;28;20202;-68
2023/11/20 01:17:59;;;;;;;1.40;1.00;;;;;;;10.83;73.67;96100.22;5046110;28;20262;-68
2023/11/20 01:20:25;;;;;;;3.33;1.27;;;;;;;10.80;73.44;96101.22;5046243;28;20880;-69
2023/11/20 01:22:50;;;;;;;4.40;1.50;;;;;;;10.74;73.24;96091.88;5048898;28;20333;-68
2023/11/20 01:25:16;;;;;;;4.90;2.23;;;;;;;10.78;73.71;96093.44;5047175;28;20182;-67
2023/11/20 01:27:41;;;;;;;5.93;1.50;;;;;;;10.78;73.96;96098.69;5048483;28;20257;-69
2023/11/20 01:30:09;;;;;;;2.30;1.43;;;;;;;10.77;73.44;96106.63;5048268;28;20174;-67
2023/11/20 01:32:35;;;;;;;3.43;1.37;;;;;;;10.70;74.05;96103.47;5048394;28;20595;-68
2023/11/20 01:35:00;;;;;;;6.13;1.67;;;;;;;10.70;74.35;96106.09;5048114;28;20445;-70
2023/11/20 01:37:25;;;;;;;2.43;1.83;;;;;;;10.63;74.60;96106.44;5048215;28;20178;-67
2023/11/20 01:39:51;;;;;;;3.90;1.50;;;;;;;10.52;75.41;96112.22;5047886;28;20537;-68
2023/11/20 01:42:16;;;;;;;5.83;1.93;;;;;;;10.46;76.36;96113.34;5048096;28;20186;-68
2023/11/20 01:44:42;;;;;;;2.40;1.57;;;;;;;10.41;76.56;96106.63;5048253;28;20381;-67
2023/11/20 01:47:08;;;;;;;2.57;1.30;;;;;;;10.40;76.74;96110.19;5047947;28;20241;-69
2023/11/20 01:49:34;;;;;;;4.20;1.30;;;;;;;10.35;76.29;96103.38;5048410;28;20502;-70
2023/11/20 01:52:01;;;;;;;6.60;1.70;;;;;;;10.31;77.04;96099.22;5048099;28;20197;-67
2023/11/20 01:54:27;;;;;;;1.60;1.10;;;;;;;10.24;77.18;96099.53;5048533;28;20413;-68
2023/11/20 01:56:53;;;;;;;2.10;1.10;;;;;;;10.24;76.90;96086.44;5048476;28;20436;-69
2023/11/20 01:59:19;;;;;;;4.40;1.40;;;;;;;10.17;77.04;96091.13;5049662;28;20513;-68
2023/11/20 02:01:45;;;;;;;4.97;1.33;;;;;;;10.14;77.27;96096.50;5051567;28;20637;-68
2023/11/20 02:04:12;;;;;;;2.93;2.33;;;;;;;10.15;77.42;96078.06;5051823;28;20416;-68
2023/11/20 02:06:37;;;;;;;3.70;1.30;;;;;;;10.08;77.59;96084.53;5062544;28;20514;-68
2023/11/20 02:09:03;;;;;;;2.57;1.30;;;;;;;10.06;77.66;96096.00;5063657;28;20447;-69
2023/11/20 02:11:29;;;;;;;1.80;1.10;;;;;;;10.03;77.80;96083.06;5063251;28;20195;-69
2023/11/20 02:13:56;;;;;;;1.77;1.20;;;;;;;10.01;77.67;96080.50;5063975;28;20452;-69
2023/11/20 02:16:21;;;;;;;4.60;2.07;;;;;;;10.01;77.18;96083.09;5053148;28;20416;-71
2023/11/20 02:18:47;;;;;;;2.50;1.70;;;;;;;9.99;77.76;96081.47;5048252;28;20880;-68
2023/11/20 02:21:12;;;;;;;2.03;1.30;;;;;;;9.95;77.22;96080.78;5047525;28;20178;-68
2023/11/20 02:23:38;;;;;;;3.73;1.53;;;;;;;9.99;77.55;96077.09;5046924;28;20615;-67
2023/11/20 02:26:31;;;;;;;5.23;1.90;;;;;;;10.00;77.41;96075.34;5046699;28;20206;-68
2023/11/20 02:29:21;;;;;;;3.73;1.63;;;;;;;9.94;77.38;96066.84;5046860;28;20174;-67
2023/11/20 02:31:46;;;;;;;3.57;1.57;;;;;;;9.88;77.31;96063.66;5046847;28;21092;-67
2023/11/20 02:34:12;;;;;;;3.47;1.77;;;;;;;9.83;77.39;96058.63;5029638;28;20413;-69
2023/11/20 02:36:37;;;;;;;2.80;1.70;;;;;;;9.71;77.42;96057.41;5026706;28;20658;-68
2023/11/20 02:39:03;;;;;;;2.97;1.70;;;;;;;9.74;77.02;96062.50;5027270;28;20194;-68
2023/11/20 02:41:29;;;;;;;2.03;1.60;;;;;;;9.71;76.47;96061.81;5027560;28;20580;-69
2023/11/20 02:43:55;;;;;;;4.80;2.30;;;;;;;9.61;76.54;96061.34;5027260;28;20559;-67
2023/11/20 02:46:21;;;;;;;1.83;1.43;;;;;;;9.47;76.45;96059.38;5026670;28;20491;-68
2023/11/20 02:48:46;;;;;;;2.67;1.60;;;;;;;9.65;75.56;96067.31;5026960;28;20473;-67
2023/11/20 02:51:12;;;;;;;6.03;1.93;;;;;;;9.65;75.26;96068.16;5027050;28;20183;-68
2023/11/20 02:53:38;;;;;;;2.53;1.40;;;;;;;9.63;75.52;96069.16;5027592;28;20558;-67
2023/11/20 02:56:03;;;;;;;2.33;1.40;;;;;;;9.53;75.86;96059.09;5026853;28;20190;-69
2023/11/20 02:58:28;;;;;;;4.23;1.50;;;;;;;9.60;75.89;96059.66;5026982;28;20385;-68
2023/11/20 03:00:54;;;;;;;3.97;1.60;;;;;;;9.62;75.56;96062.22;5027230;28;20179;-69
2023/11/20 03:03:19;;;;;;;7.43;1.90;;;;;;;9.60;75.57;96058.81;5025131;28;20290;-68
2023/11/20 03:05:45;;;;;;;3.60;1.80;;;;;;;9.59;75.28;96049.25;5025419;28;20259;-66
2023/11/20 03:08:11;;;;;;;2.90;1.70;;;;;;;9.59;75.29;96036.16;5026308;28;20194;-69
2023/11/20 03:10:36;;;;;;;5.77;1.90;;;;;;;9.59;75.31;96044.00;5026184;28;20179;-68
2023/11/20 03:13:03;;;;;;;4.60;1.60;;;;;;;9.63;75.17;96041.19;5026880;28;20523;-68
2023/11/20 03:15:28;;;;;;;3.50;1.70;;;;;;;9.70;74.72;96036.50;5026774;28;20799;-67
2023/11/20 03:17:54;;;;;;;7.13;1.67;;;;;;;9.66;74.74;96033.22;5029358;28;20518;-69
2023/11/20 03:20:20;;;;;;;3.10;1.50;;;;;;;9.68;75.19;96033.13;5025512;28;20194;-67
2023/11/20 03:22:46;;;;;;;1.70;1.40;;;;;;;9.74;74.40;96038.09;5025635;28;20566;-67
2023/11/20 03:25:11;;;;;;;2.63;1.70;;;;;;;9.68;74.40;96026.09;5025466;28;20472;-67
2023/11/20 03:27:38;;;;;;;5.63;2.07;;;;;;;9.66;74.37;96020.09;5025565;28;20261;-68
2023/11/20 03:30:04;;;;;;;1.80;1.30;;;;;;;9.70;74.45;96031.28;5026031;28;20179;-69
2023/11/20 03:32:29;;;;;;;2.33;1.20;;;;;;;9.61;74.58;96035.16;5028526;28;20498;-68
2023/11/20 03:34:54;;;;;;;2.43;1.40;;;;;;;9.73;74.14;96029.38;5045326;28;20226;-68
2023/11/20 03:37:20;;;;;;;4.73;1.50;;;;;;;9.79;73.89;96023.00;5045843;28;20174;-69
2023/11/20 03:39:45;;;;;;;2.40;1.63;;;;;;;9.79;74.09;96025.63;5045763;28;20198;-68
2023/11/20 03:42:11;;;;;;;2.70;1.33;;;;;;;9.85;73.94;96025.34;5046198;28;20198;-68
2023/11/20 03:44:37;;;;;;;1.40;1.07;;;;;;;9.85;73.72;96022.72;5048595;28;20186;-68
2023/11/20 03:47:02;;;;;;;4.80;1.50;;;;;;;9.81;73.90;96010.66;5048245;28;20457;-68
2023/11/20 03:49:27;;;;;;;2.90;1.40;;;;;;;9.80;74.49;96014.19;5049945;28;20166;-69
2023/11/20 03:51:53;;;;;;;3.20;1.57;;;;;;;9.89;74.23;96018.16;5048463;28;20252;-67
2023/11/20 03:54:18;;;;;;;5.80;1.30;;;;;;;9.89;73.70;96016.38;5049462;28;20650;-68
2023/11/20 03:56:45;;;;;;;2.30;1.60;;;;;;;9.96;73.71;96022.19;5052321;28;20220;-69
2023/11/20 03:59:11;;;;;;;4.07;1.40;;;;;;;10.06;73.33;95999.88;5053207;28;20171;-68
2023/11/20 04:01:36;;;;;;;5.00;1.60;;;;;;;10.06;73.75;96009.50;5052373;28;20423;-69
2023/11/20 04:04:02;;;;;;;2.50;1.60;;;;;;;10.06;73.14;96012.13;5049219;28;20193;-68
2023/11/20 04:06:27;;;;;;;2.33;1.30;;;;;;;10.01;73.54;96009.72;5045437;28;20241;-68
2023/11/20 04:08:53;;;;;;;2.80;1.23;;;;;;;9.99;73.71;96001.06;5045996;28;20609;-68
2023/11/20 04:11:18;;;;;;;2.60;1.50;;;;;;;10.03;73.70;95999.16;5045453;28;20777;-68
2023/11/20 04:13:43;;;;;;;16.43;1.57;;;;;;;9.96;73.82;95993.34;5045536;28;20167;-68
2023/11/20 04:16:09;;;;;;;6.07;2.00;;;;;;;10.00;73.90;95992.28;5045642;28;20195;-69
2023/11/20 04:18:35;;;;;;;2.83;1.73;;;;;;;10.03;74.13;95997.38;5046313;28;20293;-68
2023/11/20 04:21:03;;;;;;;4.00;1.50;;;;;;;10.00;73.87;96001.94;5046018;28;20467;-68
2023/11/20 04:23:28;;;;;;;3.60;1.60;;;;;;;10.05;74.00;96003.41;5046306;28;20935;-67
2023/11/20 04:25:53;;;;;;;4.93;1.93;;;;;;;10.12;73.79;95990.84;5045341;28;20469;-67
2023/11/20 04:28:19;;;;;;;2.90;1.60;;;;;;;10.16;73.78;95995.03;5048327;28;20239;-69
2023/11/20 04:30:45;;;;;;;3.60;1.77;;;;;;;10.20;73.71;95986.06;5050607;28;20170;-69
2023/11/20 04:33:10;;;;;;;3.47;1.87;;;;;;;10.22;73.40;95988.63;5048999;28;20310;-67
2023/11/20 04:35:36;;;;;;;2.93;1.60;;;;;;;10.09;73.69;95985.78;5051750;28;20179;-68
2023/11/20 04:38:01;;;;;;;3.63;1.30;;;;;;;10.13;73.05;95982.06;5066875;28;20178;-69
2023/11/20 04:40:27;;;;;;;7.10;1.63;;;;;;;10.27;72.48;95981.38;5066732;28;20198;-68
2023/11/20 04:42:52;;;;;;;1.93;1.47;;;;;;;10.23;72.07;95983.31;5068059;28;20186;-69
2023/11/20 04:45:18;;;;;;;4.40;1.80;;;;;;;10.29;72.45;95979.56;5058647;28;20409;-67
2023/11/20 04:47:43;;;;;;;2.53;1.33;;;;;;;10.24;71.70;95997.28;5049660;28;20194;-67
2023/11/20 04:50:09;;;;;;;1.93;1.20;;;;;;;10.21;71.71;95992.19;5048861;28;20209;-68
2023/11/20 04:52:36;;;;;;;3.80;1.30;;;;;;;10.31;70.88;95988.22;5049200;28;20195;-69
2023/11/20 04:55:03;;;;;;;7.53;1.77;;;;;;;10.25;71.32;95991.97;5048699;28;20170;-67
2023/11/20 04:57:29;;;;;;;2.47;1.10;;;;;;;10.18;71.32;95991.41;5048962;28;20804;-68
2023/11/20 04:59:57;;;;;;;3.20;1.57;;;;;;;10.21;71.30;95984.31;5049094;28;20416;-68
2023/11/20 05:02:25;;;;;;;3.00;1.20;;;;;;;10.18;71.16;95996.66;5049016;28;20943;-69
2023/11/20 05:04:50;;;;;;;2.03;1.80;;;;;;;10.22;70.42;95986.84;5048692;28;20414;-67
2023/11/20 05:07:16;;;;;;;5.23;1.63;;;;;;;10.22;70.65;95992.09;5048467;28;20472;-69
2023/11/20 05:09:41;;;;;;;3.10;1.70;;;;;;;10.14;70.69;95992.47;5048539;28;20170;-68
2023/11/20 05:12:07;;;;;;;4.80;1.50;;;;;;;10.22;70.25;95994.72;5048838;28;20201;-68
2023/11/20 05:14:33;;;;;;;5.73;1.63;;;;;;;10.20;70.14;95998.34;5063560;28;20606;-68
2023/11/20 05:16:59;;;;;;;2.83;1.40;;;;;;;10.25;70.36;96002.44;5048324;28;20418;-69
2023/11/20 05:19:24;;;;;;;3.43;1.97;;;;;;;10.15;69.70;95988.06;5049123;28;20224;-68
2023/11/20 05:21:50;;;;;;;2.10;1.30;;;;;;;10.05;70.08;95987.69;5048511;28;20685;-68
2023/11/20 05:24:15;;;;;;;4.20;1.60;;;;;;;10.03;69.95;95992.13;5048350;28;20183;-68
2023/11/20 05:26:41;;;;;;;6.07;1.63;;;;;;;9.99;70.14;95989.75;5048463;28;20207;-68
2023/11/20 05:29:07;;;;;;;6.63;1.70;;;;;;;9.99;70.05;95977.47;5048496;28;20577;-69
2023/11/20 05:31:33;;;;;;;3.13;1.57;;;;;;;9.92;70.68;95979.56;5048045;28;20195;-69
2023/11/20 05:33:59;;;;;;;4.67;1.97;;;;;;;9.98;70.29;95975.78;5032750;28;20290;-71
2023/11/20 05:36:24;;;;;;;2.63;1.50;;;;;;;10.01;70.06;95986.13;5028092;28;20418;-70
2023/11/20 05:38:50;;;;;;;3.60;2.00;;;;;;;10.01;70.38;95998.38;5024312;28;20190;-69
2023/11/20 05:41:15;;;;;;;2.40;1.57;;;;;;;9.98;70.42;95998.53;5044151;28;20182;-69
2023/11/20 05:43:41;;;;;;;3.20;2.10;;;;;;;10.05;70.21;95999.94;5047092;28;20237;-69
2023/11/20 05:46:06;;;;;;;3.20;1.57;;;;;;;10.03;70.00;95991.28;5030809;28;20231;-69
2023/11/20 05:48:32;;;;;;;3.47;1.80;;;;;;;10.13;70.00;95998.66;5027918;28;20167;-72
2023/11/20 05:50:58;;;;;;;4.10;1.93;;;;;;;10.11;69.92;96000.50;5028510;28;20179;-69
2023/11/20 05:53:23;;;;;;;5.10;1.50;;;;;;;10.15;69.49;96004.66;5027213;28;20206;-70
2023/11/20 05:55:48;;;;;;;4.43;1.87;;;;;;;10.15;69.53;96007.28;5027072;28;20422;-72
2023/11/20 05:58:15;;;;;;;3.90;1.90;;;;;;;10.19;69.58;96007.97;5027366;28;20229;-71
2023/11/20 06:00:41;;;;;;;7.37;1.80;;;;;;;10.26;69.81;96017.25;5027151;28;20179;-70
2023/11/20 06:03:06;;;;;;;3.43;1.53;;;;;;;10.28;69.84;96004.06;5027629;28;20518;-70
2023/11/20 06:05:32;;;;;;;5.10;1.70;;;;;;;10.16;69.71;96005.53;5027069;28;20175;-70
2023/11/20 06:07:58;;;;;;;4.33;2.10;;;;;;;10.24;70.30;96011.22;5027098;28;20191;-70
2023/11/20 06:10:23;;;;;;;9.30;2.40;;;;;;;10.15;70.69;96009.88;5027550;28;20225;-69
2023/11/20 06:12:49;;;;;;;5.10;1.87;;;;;;;10.07;70.61;96009.44;5028245;28;20205;-70
2023/11/20 06:15:15;;;;;;;7.20;2.07;;;;;;;10.06;71.25;96004.25;5027703;28;20214;-71
2023/11/20 06:17:40;;;;;;;8.13;1.80;;;;;;;10.10;70.45;96011.06;5027592;28;20191;-70
2023/11/20 06:20:08;;;;;;;6.20;1.90;;;;;;;10.13;71.11;96008.28;5028205;28;20418;-71
2023/11/20 06:22:35;;;;;;;6.00;1.90;;;;;;;10.09;71.11;96001.50;5027848;28;20257;-68
2023/11/20 06:25:00;;;;;;;6.43;2.30;;;;;;;10.06;71.29;96001.63;5027409;28;20418;-72
2023/11/20 06:27:26;;;;;;;6.40;2.03;;;;;;;10.05;70.94;96006.03;5033870;28;21049;-70
2023/11/20 06:29:51;;;;;;;4.47;1.73;;;;;;;10.08;71.25;96012.88;5045797;28;20262;-70
2023/11/20 06:32:17;;;;;;;3.20;2.13;;;;;;;10.06;71.20;96007.75;5046433;28;20202;-71
2023/11/20 06:34:42;;;;;;;4.17;1.87;;;;;;;10.15;70.79;96016.91;5039727;28;20549;-69
2023/11/20 06:37:08;;;;;;;5.37;2.20;;;;;;;10.26;70.05;96026.91;5027755;28;20806;-70
2023/11/20 06:39:33;;;;;;;5.83;2.47;;;;;;;10.20;70.42;96028.03;5029661;28;20178;-71
2023/11/20 06:42:00;;;;;;;5.83;2.80;;;;;;;10.23;69.65;96021.78;5033100;28;20199;-70
2023/11/20 06:44:25;;;;;;;4.50;2.03;;;;;;;10.21;69.98;96021.88;5026944;28;20187;-69
2023/11/20 06:46:52;;;;;;;6.03;2.30;;;;;;;10.17;69.81;96017.69;5040272;28;20471;-70
2023/11/20 06:49:19;;;;;;;4.17;1.47;;;;;;;10.15;69.99;96019.53;5039722;28;20179;-69
2023/11/20 06:51:45;;;;;;;3.00;2.10;;;;;;;10.19;69.87;96018.47;5042216;28;20474;-70
2023/11/20 06:54:10;;;;;;;6.70;2.30;;;;;;;10.18;69.98;96019.38;5039776;28;20449;-69
2023/11/20 06:56:36;;;;;;;4.50;1.90;;;;;;;10.24;69.00;96019.09;5031969;28;20686;-70
2023/11/20 06:59:02;;;;;;;4.27;2.00;;;;;;;10.23;68.93;96020.03;5034216;28;20183;-70
2023/11/20 07:01:27;;;;;;;4.53;2.03;;;;;;;10.28;68.55;96015.44;5034249;28;20207;-69
2023/11/20 07:03:55;;;;;;;4.30;1.70;;;;;;;10.21;68.56;96028.91;5033867;28;20183;-70
2023/11/20 07:06:20;;;;;;;4.80;1.97;;;;;;;10.25;67.79;96033.06;5034207;28;20865;-70
2023/11/20 07:08:46;;;;;;;4.60;1.60;;;;;;;10.42;66.60;96037.50;5042668;28;20434;-69
2023/11/20 07:11:14;;;;;;;6.53;2.13;;;;;;;10.26;66.99;96037.38;5028060;28;20214;-69
2023/11/20 07:13:40;;;;;;;5.20;2.10;;;;;;;10.36;66.41;96042.13;5032658;28;20440;-69
2023/11/20 07:16:06;;;;;;;12.67;2.30;;;;;;;10.34;66.73;96046.59;5024706;28;20437;-69
2023/11/20 07:18:31;;;;;;;7.10;2.07;;;;;;;10.39;66.18;96043.75;5026632;28;20556;-68
2023/11/20 07:20:56;;;;;;;3.37;2.17;;;;;;;10.45;65.68;96053.13;5042296;28;20421;-68
2023/11/20 07:23:22;;;;;;;3.40;1.80;;;;;;;10.45;65.61;96046.09;5045756;28;20297;-70
2023/11/20 07:25:48;;;;;;;6.87;2.03;;;;;;;10.58;64.59;96043.69;5045873;28;20181;-70
2023/11/20 07:28:13;;;;;;;3.17;1.80;;;;;;;10.52;64.96;96050.09;5034826;28;20187;-70
2023/11/20 07:30:41;;;;;;;4.50;1.83;;;;;;;10.53;64.91;96050.94;5025761;28;20452;-67
2023/11/20 07:33:06;;;;;;;4.80;1.87;;;;;;;10.48;64.33;96053.78;5034200;28;20273;-70
2023/11/20 07:35:32;;;;;;;10.70;2.53;;;;;;;10.37;64.88;96040.38;5046281;28;20413;-68
2023/11/20 07:37:57;;;;;;;8.80;2.93;;;;;;;10.39;65.58;96033.25;5046466;28;20253;-70
2023/11/20 07:40:24;;;;;;;6.43;1.77;;;;;;;10.46;64.50;96036.44;5046899;28;20309;-72
2023/11/20 07:42:50;;;;;;;6.40;2.53;;;;;;;10.42;64.74;96043.63;5047480;28;20202;-68
2023/11/20 07:45:15;;;;;;;4.13;2.10;;;;;;;10.51;64.09;96037.06;5046164;28;21063;-68
2023/11/20 07:47:41;;;;;;;6.70;1.97;;;;;;;10.51;64.48;96037.94;5046249;28;20206;-71
2023/11/20 07:50:10;;;;;;;8.10;3.57;;;;;;;10.52;63.92;96038.75;5042508;28;20634;-71
2023/11/20 07:52:36;;;;;;;8.77;2.90;;;;;;;10.57;64.01;96031.50;5044251;28;20432;-71
2023/11/20 07:55:02;;;;;;;5.73;2.50;;;;;;;10.61;64.12;96027.81;5046856;28;20412;-70
2023/11/20 07:57:27;;;;;;;5.30;2.63;;;;;;;10.57;64.39;96015.78;5048360;28;20163;-70
2023/11/20 07:59:53;;;;;;;4.80;2.10;;;;;;;10.58;64.23;96020.06;5043281;28;20417;-70
2023/11/20 08:02:19;;;;;;;7.73;3.33;;;;;;;10.60;63.74;96020.84;5041861;28;20698;-71
2023/11/20 08:04:45;;;;;;;6.23;2.20;;;;;;;10.66;63.40;96019.72;5037223;28;20179;-72
2023/11/20 08:07:13;;;;;;;6.27;3.77;;;;;;;10.69;63.10;96020.41;5047099;28;20510;-72
2023/11/20 08:09:38;;;;;;;7.30;2.00;;;;;;;10.76;62.99;96016.53;5041436;28;20429;-70
2023/11/20 08:12:04;;;;;;;6.17;2.50;;;;;;;10.94;62.03;96020.00;5026912;28;20434;-70
2023/11/20 08:14:30;;;;;;;9.00;2.00;;;;;;;10.96;62.41;96023.41;5040172;28;20182;-71
2023/11/20 08:16:56;;;;;;;8.87;2.50;;;;;;;11.02;61.37;96022.22;5046428;28;20419;-70
2023/11/20 08:19:22;;;;;;;6.53;2.37;;;;;;;11.09;61.79;96020.13;5045952;28;20257;-69
2023/11/20 08:21:48;;;;;;;9.20;2.70;;;;;;;11.23;60.76;96021.09;5046382;28;20249;-69
2023/11/20 08:24:13;;;;;;;11.47;3.17;;;;;;;11.30;60.45;96008.50;5045005;28;20409;-72
2023/11/20 08:26:39;;;;;;;15.30;2.70;;;;;;;11.30;60.39;96021.63;5043888;28;20230;-70
2023/11/20 08:29:04;;;;;;;18.20;3.20;;;;;;;11.30;60.44;96011.13;5046940;28;20254;-69
2023/11/20 08:31:31;;;;;;;25.03;3.50;;;;;;;11.27;60.45;96011.31;5046863;28;20190;-72
2023/11/20 08:33:56;;;;;;;16.70;2.60;;;;;;;11.39;59.70;96009.81;5031146;28;20274;-70
2023/11/20 08:36:22;;;;;;;10.33;2.40;;;;;;;11.57;59.26;96015.84;5026647;28;20437;-69
2023/11/20 08:38:47;;;;;;;9.00;2.90;;;;;;;11.86;58.67;96009.84;5027081;28;20203;-71
2023/11/20 08:41:13;;;;;;;6.70;2.00;;;;;;;11.98;57.36;96002.25;5026686;28;20180;-71
2023/11/20 08:43:39;;;;;;;7.73;2.50;;;;;;;11.90;57.81;96005.28;5026326;28;20167;-71
2023/11/20 08:46:05;;;;;;;7.33;2.83;;;;;;;11.83;58.16;96004.78;5026150;28;20210;-68
2023/11/20 08:48:31;;;;;;;8.57;2.67;;;;;;;11.88;57.53;96001.88;5025878;28;20422;-69
2023/11/20 08:50:56;;;;;;;10.40;2.47;;;;;;;12.06;56.89;96002.66;5026353;28;20190;-70
2023/11/20 08:53:22;;;;;;;4.53;2.20;;;;;;;12.31;55.88;96001.25;5026169;28;20434;-69
2023/11/20 08:55:48;;;;;;;6.03;1.97;;;;;;;12.54;54.73;95997.31;5026995;28;20176;-71
2023/11/20 08:58:13;;;;;;;5.77;1.97;;;;;;;12.58;54.86;95996.19;5026877;28;20203;-68
2023/11/20 09:00:39;;;;;;;8.17;2.10;;;;;;;12.54;54.92;95999.94;5026503;28;20410;-70
2023/11/20 09:03:04;;;;;;;4.60;2.00;;;;;;;12.63;54.32;95991.50;5026353;28;20223;-69
2023/11/20 09:05:30;;;;;;;8.93;3.70;;;;;;;12.49;54.76;95993.16;5026578;28;20175;-70
2023/11/20 09:07:56;;;;;;;5.00;2.20;;;;;;;12.40;55.22;95991.06;5025877;28;20298;-69
2023/11/20 09:10:25;;;;;;;3.67;2.17;;;;;;;12.46;54.56;95982.81;5026292;28;20164;-67
2023/11/20 09:12:50;;;;;;;9.43;2.80;;;;;;;12.83;53.47;95992.97;5025288;28;20462;-71
2023/11/20 09:15:16;;;;;;;12.13;2.43;;;;;;;12.96;53.06;95995.72;5025240;28;20485;-70
2023/11/20 09:17:42;;;;;;;6.40;2.70;;;;;;;12.98;52.83;95981.50;5025691;28;20180;-68
2023/11/20 09:20:12;;;;;;;7.83;2.77;;;;;;;13.26;51.92;95983.31;5042294;28;20209;-68
2023/11/20 09:22:38;;;;;;;5.03;1.93;;;;;;;13.13;51.77;95985.00;5045502;28;20211;-69
2023/11/20 09:25:04;;;;;;;9.60;1.93;;;;;;;12.97;52.69;95977.19;5026989;28;20418;-68
2023/11/20 09:27:29;;;;;;;12.27;2.70;;;;;;;12.89;52.53;95982.91;5025780;28;20465;-71
2023/11/20 09:29:56;;;;;;;5.03;1.90;;;;;;;13.01;52.38;95983.97;5029108;28;20354;-69
2023/11/20 09:32:21;;;;;;;8.00;2.70;;;;;;;13.14;51.86;95984.09;5052726;28;20199;-72
2023/11/20 09:34:47;;;;;;;6.97;2.00;;;;;;;13.10;51.30;95977.28;5025684;28;20432;-67
2023/11/20 09:37:13;;;;;;;6.80;1.90;;;;;;;13.03;51.54;95976.81;5026571;28;20178;-69
2023/11/20 09:39:41;;;;;;;8.57;2.13;;;;;;;13.05;51.84;95974.09;5028147;28;20183;-68
2023/11/20 09:42:10;;;;;;;9.27;2.10;;;;;;;12.99;51.27;95969.19;5027899;28;20202;-69
2023/11/20 09:44:40;;;;;;;5.80;2.13;;;;;;;12.85;51.94;95973.53;5028121;28;20417;-71
2023/11/20 09:47:07;;;;;;;11.70;3.10;;;;;;;12.87;51.44;95970.78;5035369;28;21076;-71
2023/11/20 09:49:36;;;;;;;5.13;1.77;;;;;;;12.89;51.71;95968.91;5047620;28;20421;-69
2023/11/20 09:52:02;;;;;;;9.10;2.27;;;;;;;12.82;52.07;95978.94;5047915;28;20982;-68
2023/11/20 09:54:30;;;;;;;10.27;2.30;;;;;;;12.88;51.97;95975.97;5048801;28;20409;-69
2023/11/20 09:56:55;;;;;;;6.93;2.03;;;;;;;12.98;50.85;95973.63;5047394;28;20518;-70
2023/11/20 09:59:21;;;;;;;5.50;1.80;;;;;;;12.95;51.27;95972.97;5057651;28;20422;-70
2023/11/20 10:01:48;;;;;;;8.30;2.47;;;;;;;12.91;51.57;95981.03;5060152;28;20226;-72
2023/11/20 10:04:18;;;;;;;6.17;2.03;;;;;;;12.88;51.20;95973.31;5056045;28;20187;-69
2023/11/20 10:06:45;;;;;;;8.90;2.20;;;;;;;12.87;51.48;95968.13;5062102;28;20528;-69
2023/11/20 10:09:15;;;;;;;13.07;1.93;;;;;;;12.94;51.18;95972.09;5040017;28;20422;-69
2023/11/20 10:11:43;;;;;;;7.30;1.90;;;;;;;12.92;51.11;95966.06;5032002;28;20483;-68
2023/11/20 10:14:09;;;;;;;11.50;2.83;;;;;;;12.95;50.45;95973.81;5027325;28;20453;-70
2023/11/20 10:16:36;;;;;;;17.70;5.63;;;;;;;13.01;50.68;95970.78;5032064;28;20448;-71
2023/11/20 10:19:02;;;;;;;6.57;2.23;;;;;;;13.07;50.91;95974.84;5047682;28;20178;-69
2023/11/20 10:21:29;;;;;;;16.97;2.60;;;;;;;13.19;50.42;95982.00;5043417;28;20430;-70
2023/11/20 10:23:55;;;;;;;24.53;3.90;;;;;;;13.27;50.30;95974.50;5027431;28;20182;-71
2023/11/20 10:26:24;;;;;;;16.80;3.70;;;;;;;13.40;49.87;95973.78;5026525;28;20474;-69
2023/11/20 10:28:50;;;;;;;11.53;3.27;;;;;;;13.56;49.61;95977.16;5027086;28;20218;-71
2023/11/20 10:31:16;;;;;;;8.63;1.80;;;;;;;13.91;48.40;95959.09;5027230;28;20866;-69
2023/11/20 10:33:43;;;;;;;5.80;1.90;;;;;;;14.08;47.91;95962.41;5039703;28;20178;-69
2023/11/20 10:36:14;;;;;;;5.77;2.60;;;;;;;14.00;48.01;95959.44;5043321;28;20178;-71
2023/11/20 10:38:41;;;;;;;15.33;2.70;;;;;;;14.15;47.94;95951.38;5027220;28;20463;-69
2023/11/20 10:41:13;;;;;;;10.57;2.40;;;;;;;14.24;47.67;95939.34;5027040;28;20414;-69
2023/11/20 10:43:40;;;;;;;5.13;1.90;;;;;;;14.40;46.75;95947.94;5027303;28;20449;-70
2023/11/20 10:46:05;;;;;;;6.73;1.53;;;;;;;14.45;46.29;95925.69;5026613;28;20888;-70
2023/11/20 10:48:36;;;;;;;7.00;2.23;;;;;;;14.42;46.57;95937.28;5026601;28;20513;-69
2023/11/20 10:51:09;;;;;;;11.50;2.90;;;;;;;14.28;46.91;95929.44;5027617;28;20254;-69
2023/11/20 10:53:39;;;;;;;9.70;2.53;;;;;;;14.30;47.46;95922.28;5026155;28;20418;-70
2023/11/20 10:56:07;;;;;;;12.27;2.43;;;;;;;14.33;47.33;95914.16;5025956;28;20414;-70
2023/11/20 10:58:33;;;;;;;15.57;2.10;;;;;;;14.68;46.38;95924.16;5027001;28;20493;-70
2023/11/20 11:00:59;;;;;;;11.80;3.07;;;;;;;14.75;46.01;95906.97;5026740;28;20422;-69
2023/11/20 11:03:30;;;;;;;6.30;1.70;;;;;;;14.91;45.70;95904.97;5026695;28;20444;-72
2023/11/20 11:06:01;;;;;;;25.97;3.80;;;;;;;14.97;45.13;95911.59;5026277;28;20418;-72
2023/11/20 11:08:28;;;;;;;16.10;3.70;;;;;;;14.92;45.27;95896.06;5026599;28;20983;-70
2023/11/20 11:10:54;;;;;;;7.00;1.90;;;;;;;15.19;44.62;95897.75;5026521;28;20446;-70
2023/11/20 11:13:23;;;;;;;8.23;2.10;;;;;;;15.02;44.32;95893.63;5026244;28;20529;-71
2023/11/20 11:15:52;;;;;;;3.97;2.00;;;;;;;14.76;44.78;95893.66;5025475;28;20992;-69
2023/11/20 11:18:25;;;;;;;12.77;2.30;;;;;;;14.77;45.50;95900.63;5026613;28;20975;-71
2023/11/20 11:20:55;;;;;;;10.17;1.77;;;;;;;15.00;44.35;95896.38;5026792;28;20505;-70
2023/11/20 11:23:25;;;;;;;4.40;1.83;;;;;;;15.16;43.72;95892.66;5026439;28;20809;-70
2023/11/20 11:26:10;;;;;;;7.70;1.77;;;;;;;14.96;44.30;95884.34;5026296;28;20410;-70
2023/11/20 11:28:39;;;;;;;9.70;2.00;;;;;;;14.82;44.25;95887.09;5026574;28;20436;-69